sensor_id;sensor_type;location;lat;lon;timestamp;P1;durP1;ratioP1;P2;durP2;ratioP2
12469;SDS011;36499;46.484;13.832;2023-05-10T00:00:08;5.27;;;2.90;;
12469;SDS011;36499;46.484;13.832;2023-05-10T00:02:36;3.23;;;2.87;;
12469;SDS011;36499;46.484;13.832;2023-05-10T00:05:05;4.43;;;2.50;;
12469;SDS011;36499;46.484;13.832;2023-05-10T00:07:33;3.73;;;2.87;;
12469;SDS011;36499;46.484;13.832;2023-05-10T00:10:00;3.10;;;2.77;;
12469;SDS011;36499;46.484;13.832;2023-05-10T00:12:27;4.47;;;2.97;;
12469;SDS011;36499;46.484;13.832;2023-05-10T00:14:54;3.30;;;3.00;;
12469;SDS011;36499;46.484;13.832;2023-05-10T00:17:21;3.37;;;2.93;;
12469;SDS011;36499;46.484;13.832;2023-05-10T00:19:48;4.43;;;2.70;;
12469;SDS011;36499;46.484;13.832;2023-05-10T00:22:17;6.90;;;3.43;;
12469;SDS011;36499;46.484;13.832;2023-05-10T00:24:44;4.97;;;2.97;;
12469;SDS011;36499;46.484;13.832;2023-05-10T00:27:11;4.67;;;3.03;;
12469;SDS011;36499;46.484;13.832;2023-05-10T00:29:38;4.00;;;3.03;;
12469;SDS011;36499;46.484;13.832;2023-05-10T00:32:05;3.30;;;2.63;;
12469;SDS011;36499;46.484;13.832;2023-05-10T00:34:32;2.80;;;2.43;;
12469;SDS011;36499;46.484;13.832;2023-05-10T00:37:00;4.10;;;2.70;;
12469;SDS011;36499;46.484;13.832;2023-05-10T00:39:28;5.40;;;3.07;;
12469;SDS011;36499;46.484;13.832;2023-05-10T00:41:55;5.77;;;2.73;;
12469;SDS011;36499;46.484;13.832;2023-05-10T00:44:23;3.27;;;2.60;;
12469;SDS011;36499;46.484;13.832;2023-05-10T00:46:50;3.23;;;2.67;;
12469;SDS011;36499;46.484;13.832;2023-05-10T00:49:18;5.70;;;3.03;;
12469;SDS011;36499;46.484;13.832;2023-05-10T00:51:46;2.73;;;2.53;;
12469;SDS011;36499;46.484;13.832;2023-05-10T00:54:14;2.93;;;2.70;;
12469;SDS011;36499;46.484;13.832;2023-05-10T00:56:44;4.87;;;2.80;;
12469;SDS011;36499;46.484;13.832;2023-05-10T00:59:14;3.43;;;2.57;;
12469;SDS011;36499;46.484;13.832;2023-05-10T01:01:42;3.73;;;2.80;;
12469;SDS011;36499;46.484;13.832;2023-05-10T01:04:10;3.20;;;2.83;;
12469;SDS011;36499;46.484;13.832;2023-05-10T01:06:39;3.73;;;3.20;;
12469;SDS011;36499;46.484;13.832;2023-05-10T01:09:07;4.33;;;2.80;;
12469;SDS011;36499;46.484;13.832;2023-05-10T01:11:34;4.00;;;3.00;;
12469;SDS011;36499;46.484;13.832;2023-05-10T01:14:05;5.47;;;2.87;;
12469;SDS011;36499;46.484;13.832;2023-05-10T01:16:34;3.73;;;2.87;;
12469;SDS011;36499;46.484;13.832;2023-05-10T01:19:05;4.57;;;2.70;;
12469;SDS011;36499;46.484;13.832;2023-05-10T01:21:43;3.50;;;3.00;;
12469;SDS011;36499;46.484;13.832;2023-05-10T01:24:34;5.60;;;3.20;;
12469;SDS011;36499;46.484;13.832;2023-05-10T01:30:52;2.73;;;2.37;;
12469;SDS011;36499;46.484;13.832;2023-05-10T01:33:50;4.07;;;3.00;;
12469;SDS011;36499;46.484;13.832;2023-05-10T01:36:26;6.90;;;3.03;;
12469;SDS011;36499;46.484;13.832;2023-05-10T01:38:59;3.50;;;2.93;;
12469;SDS011;36499;46.484;13.832;2023-05-10T01:41:36;3.27;;;2.80;;
12469;SDS011;36499;46.484;13.832;2023-05-10T01:44:16;5.80;;;2.70;;
12469;SDS011;36499;46.484;13.832;2023-05-10T01:46:56;4.10;;;3.10;;
12469;SDS011;36499;46.484;13.832;2023-05-10T01:49:34;3.17;;;2.87;;
12469;SDS011;36499;46.484;13.832;2023-05-10T01:52:08;4.77;;;3.27;;
12469;SDS011;36499;46.484;13.832;2023-05-10T01:54:44;3.47;;;3.03;;
12469;SDS011;36499;46.484;13.832;2023-05-10T01:57:20;3.40;;;3.10;;
12469;SDS011;36499;46.484;13.832;2023-05-10T01:59:53;3.40;;;3.10;;
12469;SDS011;36499;46.484;13.832;2023-05-10T02:02:23;3.67;;;3.03;;
12469;SDS011;36499;46.484;13.832;2023-05-10T02:04:54;5.30;;;3.20;;
12469;SDS011;36499;46.484;13.832;2023-05-10T02:07:24;3.70;;;3.10;;
12469;SDS011;36499;46.484;13.832;2023-05-10T02:09:52;4.13;;;3.13;;
12469;SDS011;36499;46.484;13.832;2023-05-10T02:12:21;5.03;;;2.90;;
12469;SDS011;36499;46.484;13.832;2023-05-10T02:14:52;6.03;;;3.30;;
12469;SDS011;36499;46.484;13.832;2023-05-10T02:17:21;6.17;;;3.40;;
12469;SDS011;36499;46.484;13.832;2023-05-10T02:19:50;3.17;;;2.87;;
12469;SDS011;36499;46.484;13.832;2023-05-10T02:22:22;5.33;;;3.23;;
12469;SDS011;36499;46.484;13.832;2023-05-10T02:24:50;3.93;;;3.07;;
12469;SDS011;36499;46.484;13.832;2023-05-10T02:27:18;3.70;;;3.20;;
12469;SDS011;36499;46.484;13.832;2023-05-10T02:29:48;5.17;;;3.00;;
12469;SDS011;36499;46.484;13.832;2023-05-10T02:32:17;3.30;;;3.00;;
12469;SDS011;36499;46.484;13.832;2023-05-10T02:34:45;3.30;;;2.87;;
12469;SDS011;36499;46.484;13.832;2023-05-10T02:37:18;4.20;;;2.90;;
12469;SDS011;36499;46.484;13.832;2023-05-10T02:39:47;3.57;;;2.93;;
12469;SDS011;36499;46.484;13.832;2023-05-10T02:42:18;4.07;;;2.87;;
12469;SDS011;36499;46.484;13.832;2023-05-10T02:44:52;3.60;;;3.00;;
12469;SDS011;36499;46.484;13.832;2023-05-10T02:47:27;3.00;;;2.70;;
12469;SDS011;36499;46.484;13.832;2023-05-10T02:49:55;4.20;;;3.10;;
12469;SDS011;36499;46.484;13.832;2023-05-10T02:52:25;3.20;;;2.90;;
12469;SDS011;36499;46.484;13.832;2023-05-10T02:54:57;3.17;;;2.87;;
12469;SDS011;36499;46.484;13.832;2023-05-10T02:57:30;3.47;;;2.67;;
12469;SDS011;36499;46.484;13.832;2023-05-10T03:00:00;3.87;;;2.50;;
12469;SDS011;36499;46.484;13.832;2023-05-10T03:02:28;3.47;;;2.80;;
12469;SDS011;36499;46.484;13.832;2023-05-10T03:04:55;3.23;;;2.73;;
12469;SDS011;36499;46.484;13.832;2023-05-10T03:07:24;3.90;;;2.80;;
12469;SDS011;36499;46.484;13.832;2023-05-10T03:09:51;5.13;;;2.77;;
12469;SDS011;36499;46.484;13.832;2023-05-10T03:12:20;4.67;;;2.73;;
12469;SDS011;36499;46.484;13.832;2023-05-10T03:15:00;3.43;;;2.70;;
12469;SDS011;36499;46.484;13.832;2023-05-10T03:17:41;3.83;;;3.00;;
12469;SDS011;36499;46.484;13.832;2023-05-10T03:20:20;4.63;;;2.70;;
12469;SDS011;36499;46.484;13.832;2023-05-10T03:22:55;3.97;;;2.77;;
12469;SDS011;36499;46.484;13.832;2023-05-10T03:25:33;4.73;;;2.67;;
12469;SDS011;36499;46.484;13.832;2023-05-10T03:28:01;2.90;;;2.50;;
12469;SDS011;36499;46.484;13.832;2023-05-10T03:30:31;4.07;;;2.60;;
12469;SDS011;36499;46.484;13.832;2023-05-10T03:33:03;3.90;;;2.83;;
12469;SDS011;36499;46.484;13.832;2023-05-10T03:35:32;4.30;;;2.60;;
12469;SDS011;36499;46.484;13.832;2023-05-10T03:38:00;2.87;;;2.37;;
12469;SDS011;36499;46.484;13.832;2023-05-10T03:40:27;4.77;;;2.70;;
12469;SDS011;36499;46.484;13.832;2023-05-10T03:42:56;6.93;;;2.40;;
12469;SDS011;36499;46.484;13.832;2023-05-10T03:45:24;5.10;;;2.80;;
12469;SDS011;36499;46.484;13.832;2023-05-10T03:47:51;2.77;;;2.50;;
12469;SDS011;36499;46.484;13.832;2023-05-10T03:50:19;4.60;;;2.50;;
12469;SDS011;36499;46.484;13.832;2023-05-10T03:52:46;5.37;;;2.60;;
12469;SDS011;36499;46.484;13.832;2023-05-10T03:55:14;4.47;;;2.50;;
12469;SDS011;36499;46.484;13.832;2023-05-10T03:57:42;5.40;;;3.30;;
12469;SDS011;36499;46.484;13.832;2023-05-10T04:00:09;3.27;;;2.60;;
12469;SDS011;36499;46.484;13.832;2023-05-10T04:02:37;3.00;;;2.20;;
12469;SDS011;36499;46.484;13.832;2023-05-10T04:05:05;2.87;;;2.57;;
12469;SDS011;36499;46.484;13.832;2023-05-10T04:07:32;2.70;;;2.43;;
12469;SDS011;36499;46.484;13.832;2023-05-10T04:09:59;3.13;;;2.43;;
12469;SDS011;36499;46.484;13.832;2023-05-10T04:12:28;2.60;;;2.40;;
12469;SDS011;36499;46.484;13.832;2023-05-10T04:14:55;2.73;;;2.53;;
12469;SDS011;36499;46.484;13.832;2023-05-10T04:17:22;4.80;;;2.70;;
12469;SDS011;36499;46.484;13.832;2023-05-10T04:19:49;3.20;;;2.30;;
12469;SDS011;36499;46.484;13.832;2023-05-10T04:22:18;2.57;;;2.37;;
12469;SDS011;36499;46.484;13.832;2023-05-10T04:24:45;3.17;;;2.40;;
12469;SDS011;36499;46.484;13.832;2023-05-10T04:27:12;2.63;;;2.40;;
12469;SDS011;36499;46.484;13.832;2023-05-10T04:29:40;5.57;;;2.97;;
12469;SDS011;36499;46.484;13.832;2023-05-10T04:32:07;4.30;;;2.97;;
12469;SDS011;36499;46.484;13.832;2023-05-10T04:34:35;4.53;;;3.20;;
12469;SDS011;36499;46.484;13.832;2023-05-10T04:37:02;7.50;;;4.10;;
12469;SDS011;36499;46.484;13.832;2023-05-10T04:39:29;11.27;;;5.20;;
12469;SDS011;36499;46.484;13.832;2023-05-10T04:41:57;8.70;;;4.50;;
12469;SDS011;36499;46.484;13.832;2023-05-10T04:44:24;9.50;;;4.80;;
12469;SDS011;36499;46.484;13.832;2023-05-10T04:46:52;3.40;;;3.07;;
12469;SDS011;36499;46.484;13.832;2023-05-10T04:49:19;4.07;;;2.97;;
12469;SDS011;36499;46.484;13.832;2023-05-10T04:51:46;11.00;;;4.70;;
12469;SDS011;36499;46.484;13.832;2023-05-10T04:54:13;4.80;;;3.17;;
12469;SDS011;36499;46.484;13.832;2023-05-10T04:56:40;4.80;;;3.10;;
12469;SDS011;36499;46.484;13.832;2023-05-10T04:59:07;5.60;;;3.40;;
12469;SDS011;36499;46.484;13.832;2023-05-10T05:01:34;5.80;;;3.73;;
12469;SDS011;36499;46.484;13.832;2023-05-10T05:04:03;5.53;;;3.67;;
12469;SDS011;36499;46.484;13.832;2023-05-10T05:06:30;3.00;;;2.70;;
12469;SDS011;36499;46.484;13.832;2023-05-10T05:08:57;3.63;;;3.20;;
12469;SDS011;36499;46.484;13.832;2023-05-10T05:11:24;7.13;;;2.93;;
12469;SDS011;36499;46.484;13.832;2023-05-10T05:13:51;3.10;;;2.60;;
12469;SDS011;36499;46.484;13.832;2023-05-10T05:16:18;4.60;;;3.00;;
12469;SDS011;36499;46.484;13.832;2023-05-10T05:18:46;4.00;;;2.40;;
12469;SDS011;36499;46.484;13.832;2023-05-10T05:21:15;3.83;;;2.63;;
12469;SDS011;36499;46.484;13.832;2023-05-10T05:23:43;3.00;;;2.70;;
12469;SDS011;36499;46.484;13.832;2023-05-10T05:26:10;3.30;;;2.53;;
12469;SDS011;36499;46.484;13.832;2023-05-10T05:28:37;3.67;;;2.40;;
12469;SDS011;36499;46.484;13.832;2023-05-10T05:31:05;5.27;;;2.93;;
12469;SDS011;36499;46.484;13.832;2023-05-10T05:33:32;6.13;;;2.67;;
12469;SDS011;36499;46.484;13.832;2023-05-10T05:36:00;3.53;;;2.80;;
12469;SDS011;36499;46.484;13.832;2023-05-10T05:38:29;2.63;;;2.43;;
12469;SDS011;36499;46.484;13.832;2023-05-10T05:40:56;3.03;;;2.30;;
12469;SDS011;36499;46.484;13.832;2023-05-10T05:43:23;3.50;;;2.40;;
12469;SDS011;36499;46.484;13.832;2023-05-10T05:45:51;4.20;;;2.80;;
12469;SDS011;36499;46.484;13.832;2023-05-10T05:48:19;3.60;;;2.50;;
12469;SDS011;36499;46.484;13.832;2023-05-10T05:50:46;5.63;;;3.30;;
12469;SDS011;36499;46.484;13.832;2023-05-10T05:53:13;6.97;;;3.13;;
12469;SDS011;36499;46.484;13.832;2023-05-10T05:55:45;3.50;;;2.90;;
12469;SDS011;36499;46.484;13.832;2023-05-10T05:58:18;4.83;;;2.90;;
12469;SDS011;36499;46.484;13.832;2023-05-10T06:00:45;4.37;;;2.87;;
12469;SDS011;36499;46.484;13.832;2023-05-10T06:03:12;4.53;;;2.70;;
12469;SDS011;36499;46.484;13.832;2023-05-10T06:05:40;2.63;;;2.43;;
12469;SDS011;36499;46.484;13.832;2023-05-10T06:08:07;3.97;;;3.17;;
12469;SDS011;36499;46.484;13.832;2023-05-10T06:10:34;4.47;;;2.90;;
12469;SDS011;36499;46.484;13.832;2023-05-10T06:13:03;7.77;;;2.70;;
12469;SDS011;36499;46.484;13.832;2023-05-10T06:15:30;4.93;;;2.43;;
12469;SDS011;36499;46.484;13.832;2023-05-10T06:17:57;3.57;;;3.00;;
12469;SDS011;36499;46.484;13.832;2023-05-10T06:20:24;4.17;;;2.60;;
12469;SDS011;36499;46.484;13.832;2023-05-10T06:22:51;3.23;;;2.50;;
12469;SDS011;36499;46.484;13.832;2023-05-10T06:25:18;3.60;;;2.50;;
12469;SDS011;36499;46.484;13.832;2023-05-10T06:27:46;4.57;;;2.90;;
12469;SDS011;36499;46.484;13.832;2023-05-10T06:30:15;3.93;;;2.60;;
12469;SDS011;36499;46.484;13.832;2023-05-10T06:32:42;4.17;;;2.90;;
12469;SDS011;36499;46.484;13.832;2023-05-10T06:35:10;3.10;;;2.80;;
12469;SDS011;36499;46.484;13.832;2023-05-10T06:37:37;4.40;;;2.80;;
12469;SDS011;36499;46.484;13.832;2023-05-10T06:40:05;4.23;;;2.70;;
12469;SDS011;36499;46.484;13.832;2023-05-10T06:42:34;5.17;;;2.53;;
12469;SDS011;36499;46.484;13.832;2023-05-10T06:45:01;2.90;;;2.57;;
12469;SDS011;36499;46.484;13.832;2023-05-10T06:47:30;4.40;;;2.90;;
12469;SDS011;36499;46.484;13.832;2023-05-10T06:49:57;3.27;;;2.73;;
12469;SDS011;36499;46.484;13.832;2023-05-10T06:52:24;3.13;;;2.83;;
12469;SDS011;36499;46.484;13.832;2023-05-10T06:54:51;4.33;;;3.03;;
12469;SDS011;36499;46.484;13.832;2023-05-10T06:57:18;3.07;;;2.67;;
12469;SDS011;36499;46.484;13.832;2023-05-10T06:59:45;3.97;;;2.60;;
12469;SDS011;36499;46.484;13.832;2023-05-10T07:02:12;3.87;;;2.77;;
12469;SDS011;36499;46.484;13.832;2023-05-10T07:04:41;3.00;;;2.70;;
12469;SDS011;36499;46.484;13.832;2023-05-10T07:07:08;3.37;;;2.50;;
12469;SDS011;36499;46.484;13.832;2023-05-10T07:09:35;5.43;;;2.90;;
12469;SDS011;36499;46.484;13.832;2023-05-10T07:12:02;7.83;;;2.63;;
12469;SDS011;36499;46.484;13.832;2023-05-10T07:14:30;5.67;;;3.50;;
12469;SDS011;36499;46.484;13.832;2023-05-10T07:16:57;7.10;;;3.77;;
12469;SDS011;36499;46.484;13.832;2023-05-10T07:19:24;4.10;;;3.47;;
12469;SDS011;36499;46.484;13.832;2023-05-10T07:21:52;4.17;;;3.43;;
12469;SDS011;36499;46.484;13.832;2023-05-10T07:24:20;3.23;;;2.90;;
12469;SDS011;36499;46.484;13.832;2023-05-10T07:26:48;4.20;;;3.10;;
12469;SDS011;36499;46.484;13.832;2023-05-10T07:29:15;3.23;;;2.83;;
12469;SDS011;36499;46.484;13.832;2023-05-10T07:31:42;2.90;;;2.70;;
12469;SDS011;36499;46.484;13.832;2023-05-10T07:34:09;4.60;;;3.07;;
12469;SDS011;36499;46.484;13.832;2023-05-10T07:36:36;4.80;;;3.00;;
12469;SDS011;36499;46.484;13.832;2023-05-10T07:39:04;6.40;;;2.83;;
12469;SDS011;36499;46.484;13.832;2023-05-10T07:41:32;5.33;;;2.90;;
12469;SDS011;36499;46.484;13.832;2023-05-10T07:43:59;3.30;;;2.97;;
12469;SDS011;36499;46.484;13.832;2023-05-10T07:46:26;4.53;;;3.50;;
12469;SDS011;36499;46.484;13.832;2023-05-10T07:48:53;4.50;;;3.23;;
12469;SDS011;36499;46.484;13.832;2023-05-10T07:51:20;5.83;;;3.53;;
12469;SDS011;36499;46.484;13.832;2023-05-10T07:53:47;4.20;;;3.10;;
12469;SDS011;36499;46.484;13.832;2023-05-10T07:56:22;8.40;;;3.10;;
12469;SDS011;36499;46.484;13.832;2023-05-10T07:58:54;5.40;;;3.23;;
12469;SDS011;36499;46.484;13.832;2023-05-10T08:01:22;3.10;;;2.80;;
12469;SDS011;36499;46.484;13.832;2023-05-10T08:03:50;4.10;;;3.30;;
12469;SDS011;36499;46.484;13.832;2023-05-10T08:06:18;3.90;;;2.87;;
12469;SDS011;36499;46.484;13.832;2023-05-10T08:08:46;2.90;;;2.57;;
12469;SDS011;36499;46.484;13.832;2023-05-10T08:11:15;3.77;;;3.10;;
12469;SDS011;36499;46.484;13.832;2023-05-10T08:13:44;4.03;;;2.77;;
12469;SDS011;36499;46.484;13.832;2023-05-10T08:16:11;4.90;;;2.60;;
12469;SDS011;36499;46.484;13.832;2023-05-10T08:18:39;6.40;;;3.17;;
12469;SDS011;36499;46.484;13.832;2023-05-10T08:21:06;3.13;;;2.70;;
12469;SDS011;36499;46.484;13.832;2023-05-10T08:23:34;4.67;;;2.90;;
12469;SDS011;36499;46.484;13.832;2023-05-10T08:26:01;3.17;;;2.80;;
12469;SDS011;36499;46.484;13.832;2023-05-10T08:28:28;4.60;;;2.07;;
12469;SDS011;36499;46.484;13.832;2023-05-10T08:30:56;2.03;;;1.90;;
12469;SDS011;36499;46.484;13.832;2023-05-10T08:33:23;3.33;;;2.40;;
12469;SDS011;36499;46.484;13.832;2023-05-10T08:35:51;2.53;;;2.00;;
12469;SDS011;36499;46.484;13.832;2023-05-10T08:38:18;2.20;;;2.00;;
12469;SDS011;36499;46.484;13.832;2023-05-10T08:40:45;2.93;;;2.23;;
12469;SDS011;36499;46.484;13.832;2023-05-10T08:43:15;3.47;;;2.20;;
12469;SDS011;36499;46.484;13.832;2023-05-10T08:45:43;2.10;;;1.90;;
12469;SDS011;36499;46.484;13.832;2023-05-10T08:48:13;3.93;;;2.20;;
12469;SDS011;36499;46.484;13.832;2023-05-10T08:50:42;4.53;;;2.00;;
12469;SDS011;36499;46.484;13.832;2023-05-10T08:53:11;4.30;;;1.80;;
12469;SDS011;36499;46.484;13.832;2023-05-10T08:55:41;3.43;;;2.17;;
12469;SDS011;36499;46.484;13.832;2023-05-10T08:58:09;5.60;;;2.20;;
12469;SDS011;36499;46.484;13.832;2023-05-10T09:00:36;2.63;;;1.93;;
12469;SDS011;36499;46.484;13.832;2023-05-10T09:03:03;3.20;;;2.00;;
12469;SDS011;36499;46.484;13.832;2023-05-10T09:05:33;3.47;;;2.13;;
12469;SDS011;36499;46.484;13.832;2023-05-10T09:08:02;2.63;;;1.90;;
12469;SDS011;36499;46.484;13.832;2023-05-10T09:10:30;2.77;;;2.20;;
12469;SDS011;36499;46.484;13.832;2023-05-10T09:12:58;5.83;;;2.00;;
12469;SDS011;36499;46.484;13.832;2023-05-10T09:15:25;7.37;;;2.10;;
12469;SDS011;36499;46.484;13.832;2023-05-10T09:17:53;2.63;;;2.30;;
12469;SDS011;36499;46.484;13.832;2023-05-10T09:20:23;3.53;;;2.17;;
12469;SDS011;36499;46.484;13.832;2023-05-10T09:22:52;2.73;;;2.10;;
12469;SDS011;36499;46.484;13.832;2023-05-10T09:25:19;3.53;;;2.10;;
12469;SDS011;36499;46.484;13.832;2023-05-10T09:27:47;2.20;;;2.00;;
12469;SDS011;36499;46.484;13.832;2023-05-10T09:30:15;2.73;;;2.17;;
12469;SDS011;36499;46.484;13.832;2023-05-10T09:32:49;3.37;;;2.30;;
12469;SDS011;36499;46.484;13.832;2023-05-10T09:35:17;4.10;;;2.23;;
12469;SDS011;36499;46.484;13.832;2023-05-10T09:37:46;2.00;;;1.80;;
12469;SDS011;36499;46.484;13.832;2023-05-10T09:40:18;2.30;;;1.87;;
12469;SDS011;36499;46.484;13.832;2023-05-10T09:42:51;2.10;;;1.90;;
12469;SDS011;36499;46.484;13.832;2023-05-10T09:45:19;3.77;;;2.23;;
12469;SDS011;36499;46.484;13.832;2023-05-10T09:47:47;3.17;;;2.10;;
12469;SDS011;36499;46.484;13.832;2023-05-10T09:50:15;2.23;;;2.00;;
12469;SDS011;36499;46.484;13.832;2023-05-10T09:52:48;2.60;;;2.40;;
12469;SDS011;36499;46.484;13.832;2023-05-10T09:55:20;2.47;;;2.13;;
12469;SDS011;36499;46.484;13.832;2023-05-10T09:57:49;5.30;;;2.20;;
12469;SDS011;36499;46.484;13.832;2023-05-10T10:00:26;2.37;;;2.10;;
12469;SDS011;36499;46.484;13.832;2023-05-10T10:02:55;3.30;;;2.33;;
12469;SDS011;36499;46.484;13.832;2023-05-10T10:05:27;2.60;;;2.23;;
12469;SDS011;36499;46.484;13.832;2023-05-10T10:07:55;5.97;;;2.37;;
12469;SDS011;36499;46.484;13.832;2023-05-10T10:10:26;5.37;;;2.47;;
12469;SDS011;36499;46.484;13.832;2023-05-10T10:12:54;2.77;;;2.23;;
12469;SDS011;36499;46.484;13.832;2023-05-10T10:15:22;4.83;;;2.03;;
12469;SDS011;36499;46.484;13.832;2023-05-10T10:17:50;3.60;;;2.30;;
12469;SDS011;36499;46.484;13.832;2023-05-10T10:20:20;2.43;;;2.17;;
12469;SDS011;36499;46.484;13.832;2023-05-10T10:22:50;4.63;;;2.80;;
12469;SDS011;36499;46.484;13.832;2023-05-10T10:25:17;3.40;;;2.40;;
12469;SDS011;36499;46.484;13.832;2023-05-10T10:27:52;4.70;;;2.10;;
12469;SDS011;36499;46.484;13.832;2023-05-10T10:30:43;2.90;;;2.30;;
12469;SDS011;36499;46.484;13.832;2023-05-10T10:33:30;5.50;;;2.50;;
12469;SDS011;36499;46.484;13.832;2023-05-10T10:36:15;4.50;;;2.50;;
12469;SDS011;36499;46.484;13.832;2023-05-10T10:38:55;7.70;;;2.80;;
12469;SDS011;36499;46.484;13.832;2023-05-10T10:41:29;3.20;;;2.50;;
12469;SDS011;36499;46.484;13.832;2023-05-10T10:49:54;4.27;;;2.60;;
12469;SDS011;36499;46.484;13.832;2023-05-10T10:52:31;3.60;;;2.40;;
12469;SDS011;36499;46.484;13.832;2023-05-10T10:55:00;3.70;;;2.83;;
12469;SDS011;36499;46.484;13.832;2023-05-10T10:57:35;3.17;;;2.63;;
12469;SDS011;36499;46.484;13.832;2023-05-10T11:03:06;3.93;;;2.90;;
12469;SDS011;36499;46.484;13.832;2023-05-10T11:05:39;5.27;;;3.67;;
12469;SDS011;36499;46.484;13.832;2023-05-10T11:08:12;4.77;;;3.87;;
12469;SDS011;36499;46.484;13.832;2023-05-10T11:10:52;4.60;;;4.20;;
12469;SDS011;36499;46.484;13.832;2023-05-10T11:13:32;5.07;;;4.23;;
12469;SDS011;36499;46.484;13.832;2023-05-10T11:16:18;4.57;;;3.83;;
12469;SDS011;36499;46.484;13.832;2023-05-10T11:18:51;8.30;;;4.17;;
12469;SDS011;36499;46.484;13.832;2023-05-10T11:21:27;5.67;;;4.20;;
12469;SDS011;36499;46.484;13.832;2023-05-10T11:23:56;7.27;;;5.30;;
12469;SDS011;36499;46.484;13.832;2023-05-10T11:26:25;6.60;;;4.77;;
12469;SDS011;36499;46.484;13.832;2023-05-10T11:28:58;7.30;;;4.43;;
12469;SDS011;36499;46.484;13.832;2023-05-10T11:31:28;5.13;;;4.60;;
12469;SDS011;36499;46.484;13.832;2023-05-10T11:33:57;7.53;;;4.90;;
12469;SDS011;36499;46.484;13.832;2023-05-10T11:36:27;4.80;;;4.40;;
12469;SDS011;36499;46.484;13.832;2023-05-10T11:38:58;5.00;;;4.50;;
12469;SDS011;36499;46.484;13.832;2023-05-10T11:41:27;8.77;;;4.80;;
12469;SDS011;36499;46.484;13.832;2023-05-10T11:43:57;6.47;;;4.57;;
12469;SDS011;36499;46.484;13.832;2023-05-10T11:46:25;4.83;;;4.30;;
12469;SDS011;36499;46.484;13.832;2023-05-10T11:48:55;5.23;;;4.70;;
12469;SDS011;36499;46.484;13.832;2023-05-10T11:51:29;5.80;;;4.50;;
12469;SDS011;36499;46.484;13.832;2023-05-10T11:54:00;8.13;;;4.90;;
12469;SDS011;36499;46.484;13.832;2023-05-10T11:56:32;6.20;;;4.43;;
12469;SDS011;36499;46.484;13.832;2023-05-10T11:58:59;5.97;;;4.57;;
12469;SDS011;36499;46.484;13.832;2023-05-10T12:01:29;4.63;;;4.10;;
12469;SDS011;36499;46.484;13.832;2023-05-10T12:03:57;4.80;;;4.30;;
12469;SDS011;36499;46.484;13.832;2023-05-10T12:06:26;6.37;;;4.30;;
12469;SDS011;36499;46.484;13.832;2023-05-10T12:08:54;6.43;;;4.43;;
12469;SDS011;36499;46.484;13.832;2023-05-10T12:11:24;6.97;;;4.47;;
12469;SDS011;36499;46.484;13.832;2023-05-10T12:13:52;4.80;;;4.37;;
12469;SDS011;36499;46.484;13.832;2023-05-10T12:16:22;4.17;;;3.83;;
12469;SDS011;36499;46.484;13.832;2023-05-10T12:18:53;6.37;;;4.37;;
12469;SDS011;36499;46.484;13.832;2023-05-10T12:21:23;4.73;;;4.23;;
12469;SDS011;36499;46.484;13.832;2023-05-10T12:23:51;6.27;;;4.40;;
12469;SDS011;36499;46.484;13.832;2023-05-10T12:26:21;5.17;;;3.97;;
12469;SDS011;36499;46.484;13.832;2023-05-10T12:28:49;5.83;;;4.10;;
12469;SDS011;36499;46.484;13.832;2023-05-10T12:31:16;6.90;;;4.10;;
12469;SDS011;36499;46.484;13.832;2023-05-10T12:33:43;10.17;;;4.73;;
12469;SDS011;36499;46.484;13.832;2023-05-10T12:36:14;6.70;;;4.57;;
12469;SDS011;36499;46.484;13.832;2023-05-10T12:38:43;5.20;;;4.13;;
12469;SDS011;36499;46.484;13.832;2023-05-10T12:41:14;5.43;;;4.40;;
12469;SDS011;36499;46.484;13.832;2023-05-10T12:43:42;4.57;;;3.80;;
12469;SDS011;36499;46.484;13.832;2023-05-10T12:46:10;7.30;;;4.53;;
12469;SDS011;36499;46.484;13.832;2023-05-10T12:48:40;6.20;;;5.17;;
12469;SDS011;36499;46.484;13.832;2023-05-10T12:51:09;6.27;;;4.73;;
12469;SDS011;36499;46.484;13.832;2023-05-10T12:53:41;5.50;;;5.00;;
12469;SDS011;36499;46.484;13.832;2023-05-10T12:56:10;6.10;;;4.87;;
12469;SDS011;36499;46.484;13.832;2023-05-10T12:58:37;6.60;;;5.43;;
12469;SDS011;36499;46.484;13.832;2023-05-10T13:01:05;7.90;;;6.00;;
12469;SDS011;36499;46.484;13.832;2023-05-10T13:03:33;8.63;;;6.47;;
12469;SDS011;36499;46.484;13.832;2023-05-10T13:06:00;6.30;;;5.70;;
12469;SDS011;36499;46.484;13.832;2023-05-10T13:08:27;8.27;;;5.87;;
12469;SDS011;36499;46.484;13.832;2023-05-10T13:10:59;8.90;;;6.10;;
12469;SDS011;36499;46.484;13.832;2023-05-10T13:13:27;8.30;;;6.13;;
12469;SDS011;36499;46.484;13.832;2023-05-10T13:15:54;9.07;;;6.47;;
12469;SDS011;36499;46.484;13.832;2023-05-10T13:18:21;7.27;;;6.57;;
12469;SDS011;36499;46.484;13.832;2023-05-10T13:20:49;8.73;;;6.33;;
12469;SDS011;36499;46.484;13.832;2023-05-10T13:23:16;7.47;;;6.60;;
12469;SDS011;36499;46.484;13.832;2023-05-10T13:25:43;9.83;;;7.30;;
12469;SDS011;36499;46.484;13.832;2023-05-10T13:28:11;8.70;;;6.60;;
12469;SDS011;36499;46.484;13.832;2023-05-10T13:30:38;8.50;;;6.43;;
12469;SDS011;36499;46.484;13.832;2023-05-10T13:33:05;9.10;;;7.30;;
12469;SDS011;36499;46.484;13.832;2023-05-10T13:35:32;7.07;;;6.37;;
12469;SDS011;36499;46.484;13.832;2023-05-10T13:37:59;7.87;;;7.07;;
12469;SDS011;36499;46.484;13.832;2023-05-10T13:40:27;9.43;;;6.67;;
12469;SDS011;36499;46.484;13.832;2023-05-10T13:42:54;8.00;;;7.20;;
12469;SDS011;36499;46.484;13.832;2023-05-10T13:45:22;7.50;;;6.70;;
12469;SDS011;36499;46.484;13.832;2023-05-10T13:47:49;7.93;;;7.03;;
12469;SDS011;36499;46.484;13.832;2023-05-10T13:50:17;7.63;;;6.93;;
12469;SDS011;36499;46.484;13.832;2023-05-10T13:52:44;9.13;;;6.97;;
12469;SDS011;36499;46.484;13.832;2023-05-10T13:55:12;8.70;;;7.90;;
12469;SDS011;36499;46.484;13.832;2023-05-10T13:57:39;13.60;;;7.67;;
12469;SDS011;36499;46.484;13.832;2023-05-10T14:00:08;10.70;;;8.13;;
12469;SDS011;36499;46.484;13.832;2023-05-10T14:02:37;11.10;;;8.23;;
12469;SDS011;36499;46.484;13.832;2023-05-10T14:05:05;9.50;;;8.30;;
12469;SDS011;36499;46.484;13.832;2023-05-10T14:07:33;13.70;;;9.03;;
12469;SDS011;36499;46.484;13.832;2023-05-10T14:10:01;11.03;;;8.07;;
12469;SDS011;36499;46.484;13.832;2023-05-10T14:12:29;10.33;;;8.13;;
12469;SDS011;36499;46.484;13.832;2023-05-10T14:14:56;9.17;;;8.23;;
12469;SDS011;36499;46.484;13.832;2023-05-10T14:17:23;9.80;;;8.07;;
12469;SDS011;36499;46.484;13.832;2023-05-10T14:19:52;10.30;;;8.30;;
12469;SDS011;36499;46.484;13.832;2023-05-10T14:22:19;11.23;;;8.83;;
12469;SDS011;36499;46.484;13.832;2023-05-10T14:24:47;12.07;;;9.43;;
12469;SDS011;36499;46.484;13.832;2023-05-10T14:27:14;9.43;;;8.47;;
12469;SDS011;36499;46.484;13.832;2023-05-10T14:29:41;11.47;;;9.57;;
12469;SDS011;36499;46.484;13.832;2023-05-10T14:32:08;10.70;;;8.57;;
12469;SDS011;36499;46.484;13.832;2023-05-10T14:34:35;9.73;;;8.77;;
12469;SDS011;36499;46.484;13.832;2023-05-10T14:37:03;9.60;;;8.60;;
12469;SDS011;36499;46.484;13.832;2023-05-10T14:39:31;10.67;;;9.37;;
12469;SDS011;36499;46.484;13.832;2023-05-10T14:41:58;9.67;;;8.67;;
12469;SDS011;36499;46.484;13.832;2023-05-10T14:44:25;12.93;;;9.67;;
12469;SDS011;36499;46.484;13.832;2023-05-10T14:46:52;10.03;;;9.00;;
12469;SDS011;36499;46.484;13.832;2023-05-10T14:49:20;9.23;;;8.33;;
12469;SDS011;36499;46.484;13.832;2023-05-10T14:51:50;10.40;;;8.33;;
12469;SDS011;36499;46.484;13.832;2023-05-10T14:54:19;9.27;;;8.27;;
12469;SDS011;36499;46.484;13.832;2023-05-10T14:56:46;11.77;;;9.17;;